VTSH

Songkhla Airport

Thailand
TAF VTSH 210500Z 2106/2206 24008KT 9999 FEW020 SCT100
Issued Valid From Valid To
Jun-21 @ 05:00 UTC
(5 hours ago)
Jun-21 @ 06:00 UTC
(4 hours ago)
Jun-22 @ 06:00 UTC
(in 20 hours)
Jun-21 @ 06:00 to Jun-22 @ 06:00
TAF VTSH 210500Z 2106/2206 24008KT 9999 FEW020 SCT100
Wind Visibility Clouds
240° at 8 knots 10,000+ meters
  • Few at 2,000' AGL
  • Scattered at 10,000' AGL
TAF VTSH 210500Z 2106/2206 24008KT 9999 FEW020 SCT100
Issued Jun-21 @ 05:00 UTC
(5 hours ago)
Valid From Jun-21 @ 06:00 UTC
(4 hours ago)
Valid To Jun-22 @ 06:00 UTC
(in 20 hours)
Jun-21 @ 06:00 - Jun-22 @ 06:00
Wind Visibility
240° at 8 knots 10,000+ meters
Clouds
  • Few at 2,000' AGL
  • Scattered at 10,000' AGL